sensor_id;sensor_type;location;lat;lon;timestamp;P1;durP1;ratioP1;P2;durP2;ratioP2
42244;SDS011;27912;51.828;5.688;2022-11-20T00:01:16;17.90;;;9.30;;
42244;SDS011;27912;51.828;5.688;2022-11-20T00:03:50;18.98;;;9.25;;
42244;SDS011;27912;51.828;5.688;2022-11-20T00:06:18;21.75;;;9.60;;
42244;SDS011;27912;51.828;5.688;2022-11-20T00:08:45;22.30;;;9.93;;
42244;SDS011;27912;51.828;5.688;2022-11-20T00:11:13;23.88;;;9.40;;
42244;SDS011;27912;51.828;5.688;2022-11-20T00:13:41;17.70;;;8.88;;
42244;SDS011;27912;51.828;5.688;2022-11-20T00:16:09;23.40;;;10.52;;
42244;SDS011;27912;51.828;5.688;2022-11-20T00:18:36;21.52;;;9.48;;
42244;SDS011;27912;51.828;5.688;2022-11-20T00:21:06;19.65;;;9.18;;
42244;SDS011;27912;51.828;5.688;2022-11-20T00:23:38;18.48;;;9.00;;
42244;SDS011;27912;51.828;5.688;2022-11-20T00:26:07;22.67;;;9.77;;
42244;SDS011;27912;51.828;5.688;2022-11-20T00:28:38;19.77;;;9.95;;
42244;SDS011;27912;51.828;5.688;2022-11-20T00:31:05;24.42;;;9.50;;
42244;SDS011;27912;51.828;5.688;2022-11-20T00:33:34;18.45;;;9.35;;
42244;SDS011;27912;51.828;5.688;2022-11-20T00:36:04;21.40;;;9.30;;
42244;SDS011;27912;51.828;5.688;2022-11-20T00:38:34;22.05;;;10.27;;
42244;SDS011;27912;51.828;5.688;2022-11-20T00:41:01;22.52;;;10.35;;
42244;SDS011;27912;51.828;5.688;2022-11-20T00:43:31;23.63;;;11.00;;
42244;SDS011;27912;51.828;5.688;2022-11-20T00:45:58;22.92;;;10.18;;
42244;SDS011;27912;51.828;5.688;2022-11-20T00:48:24;20.85;;;9.65;;
42244;SDS011;27912;51.828;5.688;2022-11-20T00:50:50;23.00;;;10.82;;
42244;SDS011;27912;51.828;5.688;2022-11-20T00:53:17;19.27;;;9.35;;
42244;SDS011;27912;51.828;5.688;2022-11-20T00:55:42;24.45;;;10.48;;
42244;SDS011;27912;51.828;5.688;2022-11-20T00:58:17;24.30;;;11.43;;
42244;SDS011;27912;51.828;5.688;2022-11-20T01:00:43;22.33;;;9.65;;
42244;SDS011;27912;51.828;5.688;2022-11-20T01:03:09;23.50;;;10.18;;
42244;SDS011;27912;51.828;5.688;2022-11-20T01:05:35;22.95;;;10.55;;
42244;SDS011;27912;51.828;5.688;2022-11-20T01:08:01;24.17;;;11.63;;
42244;SDS011;27912;51.828;5.688;2022-11-20T01:10:26;23.23;;;10.63;;
42244;SDS011;27912;51.828;5.688;2022-11-20T01:12:52;23.15;;;11.60;;
42244;SDS011;27912;51.828;5.688;2022-11-20T01:15:38;21.25;;;10.25;;
42244;SDS011;27912;51.828;5.688;2022-11-20T01:18:04;21.08;;;9.82;;
42244;SDS011;27912;51.828;5.688;2022-11-20T01:20:33;25.77;;;10.73;;
42244;SDS011;27912;51.828;5.688;2022-11-20T01:23:03;23.15;;;9.88;;
42244;SDS011;27912;51.828;5.688;2022-11-20T01:25:29;21.83;;;10.75;;
42244;SDS011;27912;51.828;5.688;2022-11-20T01:27:55;26.05;;;11.23;;
42244;SDS011;27912;51.828;5.688;2022-11-20T01:30:21;25.83;;;12.02;;
42244;SDS011;27912;51.828;5.688;2022-11-20T01:32:50;24.40;;;11.07;;
42244;SDS011;27912;51.828;5.688;2022-11-20T01:35:16;24.00;;;11.10;;
42244;SDS011;27912;51.828;5.688;2022-11-20T01:37:42;22.77;;;10.10;;
42244;SDS011;27912;51.828;5.688;2022-11-20T01:40:10;24.55;;;10.70;;
42244;SDS011;27912;51.828;5.688;2022-11-20T01:42:36;26.13;;;10.82;;
42244;SDS011;27912;51.828;5.688;2022-11-20T01:48:19;21.38;;;10.48;;
42244;SDS011;27912;51.828;5.688;2022-11-20T01:50:47;22.50;;;11.13;;
42244;SDS011;27912;51.828;5.688;2022-11-20T01:53:15;28.63;;;13.05;;
42244;SDS011;27912;51.828;5.688;2022-11-20T01:55:51;25.20;;;11.30;;
42244;SDS011;27912;51.828;5.688;2022-11-20T01:58:25;25.88;;;11.40;;
42244;SDS011;27912;51.828;5.688;2022-11-20T02:00:55;23.42;;;10.65;;
42244;SDS011;27912;51.828;5.688;2022-11-20T02:03:21;27.33;;;11.25;;
42244;SDS011;27912;51.828;5.688;2022-11-20T02:08:47;25.20;;;11.18;;
42244;SDS011;27912;51.828;5.688;2022-11-20T02:11:13;23.73;;;11.45;;
42244;SDS011;27912;51.828;5.688;2022-11-20T02:13:39;25.15;;;11.40;;
42244;SDS011;27912;51.828;5.688;2022-11-20T02:16:13;28.52;;;12.07;;
42244;SDS011;27912;51.828;5.688;2022-11-20T02:18:46;28.45;;;11.82;;
42244;SDS011;27912;51.828;5.688;2022-11-20T02:24:18;23.90;;;10.30;;
42244;SDS011;27912;51.828;5.688;2022-11-20T02:26:50;28.75;;;11.63;;
42244;SDS011;27912;51.828;5.688;2022-11-20T02:29:23;24.15;;;10.82;;
42244;SDS011;27912;51.828;5.688;2022-11-20T02:31:57;22.88;;;10.27;;
42244;SDS011;27912;51.828;5.688;2022-11-20T02:34:26;24.13;;;11.55;;
42244;SDS011;27912;51.828;5.688;2022-11-20T02:36:52;23.80;;;11.50;;
42244;SDS011;27912;51.828;5.688;2022-11-20T02:39:21;29.95;;;11.90;;
42244;SDS011;27912;51.828;5.688;2022-11-20T02:41:50;27.77;;;11.70;;
42244;SDS011;27912;51.828;5.688;2022-11-20T02:44:21;22.92;;;11.50;;
42244;SDS011;27912;51.828;5.688;2022-11-20T02:46:50;25.05;;;11.40;;
42244;SDS011;27912;51.828;5.688;2022-11-20T02:49:15;24.05;;;10.63;;
42244;SDS011;27912;51.828;5.688;2022-11-20T02:51:44;30.17;;;13.15;;
42244;SDS011;27912;51.828;5.688;2022-11-20T02:54:10;28.58;;;12.32;;
42244;SDS011;27912;51.828;5.688;2022-11-20T02:56:37;25.08;;;12.27;;
42244;SDS011;27912;51.828;5.688;2022-11-20T02:59:13;23.80;;;11.02;;
42244;SDS011;27912;51.828;5.688;2022-11-20T03:01:39;23.77;;;10.65;;
42244;SDS011;27912;51.828;5.688;2022-11-20T03:04:05;23.75;;;10.82;;
42244;SDS011;27912;51.828;5.688;2022-11-20T03:06:34;24.60;;;12.02;;
42244;SDS011;27912;51.828;5.688;2022-11-20T03:09:03;25.38;;;11.98;;
42244;SDS011;27912;51.828;5.688;2022-11-20T03:11:32;24.80;;;11.33;;
42244;SDS011;27912;51.828;5.688;2022-11-20T03:14:05;26.00;;;11.60;;
42244;SDS011;27912;51.828;5.688;2022-11-20T03:16:36;24.02;;;11.07;;
42244;SDS011;27912;51.828;5.688;2022-11-20T03:19:02;26.05;;;10.35;;
42244;SDS011;27912;51.828;5.688;2022-11-20T03:21:29;23.92;;;11.52;;
42244;SDS011;27912;51.828;5.688;2022-11-20T03:24:01;23.85;;;10.90;;
42244;SDS011;27912;51.828;5.688;2022-11-20T03:26:28;22.77;;;10.77;;
42244;SDS011;27912;51.828;5.688;2022-11-20T03:28:55;29.10;;;12.52;;
42244;SDS011;27912;51.828;5.688;2022-11-20T03:31:24;29.48;;;12.55;;
42244;SDS011;27912;51.828;5.688;2022-11-20T03:33:58;27.48;;;12.40;;
42244;SDS011;27912;51.828;5.688;2022-11-20T03:36:25;25.15;;;11.43;;
42244;SDS011;27912;51.828;5.688;2022-11-20T03:38:55;24.55;;;11.07;;
42244;SDS011;27912;51.828;5.688;2022-11-20T03:41:23;26.55;;;12.25;;
42244;SDS011;27912;51.828;5.688;2022-11-20T03:43:55;22.30;;;11.25;;
42244;SDS011;27912;51.828;5.688;2022-11-20T03:46:26;25.25;;;11.23;;
42244;SDS011;27912;51.828;5.688;2022-11-20T03:48:53;24.27;;;10.52;;
42244;SDS011;27912;51.828;5.688;2022-11-20T03:51:23;29.27;;;12.60;;
42244;SDS011;27912;51.828;5.688;2022-11-20T03:53:52;28.95;;;12.80;;
42244;SDS011;27912;51.828;5.688;2022-11-20T03:56:21;24.75;;;11.85;;
42244;SDS011;27912;51.828;5.688;2022-11-20T03:58:51;28.55;;;12.77;;
42244;SDS011;27912;51.828;5.688;2022-11-20T04:01:39;25.42;;;11.52;;
42244;SDS011;27912;51.828;5.688;2022-11-20T04:04:06;24.45;;;11.52;;
42244;SDS011;27912;51.828;5.688;2022-11-20T04:06:36;22.35;;;11.20;;
42244;SDS011;27912;51.828;5.688;2022-11-20T04:09:11;25.08;;;11.38;;
42244;SDS011;27912;51.828;5.688;2022-11-20T04:11:41;23.13;;;10.05;;
42244;SDS011;27912;51.828;5.688;2022-11-20T04:14:11;28.63;;;11.63;;
42244;SDS011;27912;51.828;5.688;2022-11-20T04:16:41;20.13;;;9.57;;
42244;SDS011;27912;51.828;5.688;2022-11-20T04:19:11;26.48;;;12.00;;
42244;SDS011;27912;51.828;5.688;2022-11-20T04:21:38;25.88;;;11.27;;
42244;SDS011;27912;51.828;5.688;2022-11-20T04:24:05;26.55;;;12.45;;
42244;SDS011;27912;51.828;5.688;2022-11-20T04:26:35;25.48;;;12.77;;
42244;SDS011;27912;51.828;5.688;2022-11-20T04:29:01;24.88;;;11.95;;
42244;SDS011;27912;51.828;5.688;2022-11-20T04:31:29;24.50;;;11.43;;
42244;SDS011;27912;51.828;5.688;2022-11-20T04:33:58;23.52;;;11.45;;
42244;SDS011;27912;51.828;5.688;2022-11-20T04:36:28;27.08;;;11.52;;
42244;SDS011;27912;51.828;5.688;2022-11-20T04:38:55;28.15;;;12.43;;
42244;SDS011;27912;51.828;5.688;2022-11-20T04:41:28;26.08;;;12.75;;
42244;SDS011;27912;51.828;5.688;2022-11-20T04:43:59;26.58;;;11.00;;
42244;SDS011;27912;51.828;5.688;2022-11-20T04:46:34;24.83;;;11.07;;
42244;SDS011;27912;51.828;5.688;2022-11-20T04:51:28;25.65;;;11.60;;
42244;SDS011;27912;51.828;5.688;2022-11-20T04:53:54;26.60;;;12.00;;
42244;SDS011;27912;51.828;5.688;2022-11-20T04:56:20;24.50;;;11.85;;
42244;SDS011;27912;51.828;5.688;2022-11-20T04:58:46;23.80;;;11.32;;
42244;SDS011;27912;51.828;5.688;2022-11-20T05:01:13;28.38;;;11.68;;
42244;SDS011;27912;51.828;5.688;2022-11-20T05:03:41;24.10;;;10.80;;
42244;SDS011;27912;51.828;5.688;2022-11-20T05:06:08;25.77;;;12.45;;
42244;SDS011;27912;51.828;5.688;2022-11-20T05:08:36;27.10;;;11.70;;
42244;SDS011;27912;51.828;5.688;2022-11-20T05:13:36;24.88;;;10.85;;
42244;SDS011;27912;51.828;5.688;2022-11-20T05:16:06;23.95;;;10.82;;
42244;SDS011;27912;51.828;5.688;2022-11-20T05:18:34;26.33;;;12.17;;
42244;SDS011;27912;51.828;5.688;2022-11-20T05:21:00;26.08;;;11.80;;
42244;SDS011;27912;51.828;5.688;2022-11-20T05:23:27;26.23;;;12.10;;
42244;SDS011;27912;51.828;5.688;2022-11-20T05:25:55;28.77;;;12.82;;
42244;SDS011;27912;51.828;5.688;2022-11-20T05:28:21;25.85;;;12.63;;
42244;SDS011;27912;51.828;5.688;2022-11-20T05:30:48;26.20;;;12.45;;
42244;SDS011;27912;51.828;5.688;2022-11-20T05:33:14;26.60;;;11.68;;
42244;SDS011;27912;51.828;5.688;2022-11-20T05:35:40;30.63;;;14.10;;
42244;SDS011;27912;51.828;5.688;2022-11-20T05:38:06;29.73;;;14.20;;
42244;SDS011;27912;51.828;5.688;2022-11-20T05:40:35;28.35;;;13.55;;
42244;SDS011;27912;51.828;5.688;2022-11-20T05:43:01;29.10;;;12.82;;
42244;SDS011;27912;51.828;5.688;2022-11-20T05:45:27;28.73;;;12.80;;
42244;SDS011;27912;51.828;5.688;2022-11-20T05:47:57;24.80;;;12.43;;
42244;SDS011;27912;51.828;5.688;2022-11-20T05:50:24;29.38;;;12.55;;
42244;SDS011;27912;51.828;5.688;2022-11-20T05:52:50;29.63;;;12.90;;
42244;SDS011;27912;51.828;5.688;2022-11-20T05:55:16;25.77;;;12.20;;
42244;SDS011;27912;51.828;5.688;2022-11-20T05:57:41;26.65;;;12.73;;
42244;SDS011;27912;51.828;5.688;2022-11-20T06:00:07;25.90;;;12.10;;
42244;SDS011;27912;51.828;5.688;2022-11-20T06:02:37;27.42;;;12.73;;
42244;SDS011;27912;51.828;5.688;2022-11-20T06:05:03;27.90;;;12.48;;
42244;SDS011;27912;51.828;5.688;2022-11-20T06:07:32;25.52;;;11.23;;
42244;SDS011;27912;51.828;5.688;2022-11-20T06:09:58;30.38;;;12.10;;
42244;SDS011;27912;51.828;5.688;2022-11-20T06:12:23;26.08;;;12.15;;
42244;SDS011;27912;51.828;5.688;2022-11-20T06:14:52;29.83;;;12.57;;
42244;SDS011;27912;51.828;5.688;2022-11-20T06:17:18;29.05;;;12.20;;
42244;SDS011;27912;51.828;5.688;2022-11-20T06:19:44;28.33;;;11.73;;
42244;SDS011;27912;51.828;5.688;2022-11-20T06:22:10;27.20;;;12.40;;
42244;SDS011;27912;51.828;5.688;2022-11-20T06:24:36;26.40;;;11.82;;
42244;SDS011;27912;51.828;5.688;2022-11-20T06:27:02;28.23;;;12.25;;
42244;SDS011;27912;51.828;5.688;2022-11-20T06:29:27;25.20;;;11.25;;
42244;SDS011;27912;51.828;5.688;2022-11-20T06:31:54;31.60;;;12.93;;
42244;SDS011;27912;51.828;5.688;2022-11-20T06:34:22;24.90;;;11.15;;
42244;SDS011;27912;51.828;5.688;2022-11-20T06:36:48;27.50;;;13.45;;
42244;SDS011;27912;51.828;5.688;2022-11-20T06:39:14;26.63;;;12.95;;
42244;SDS011;27912;51.828;5.688;2022-11-20T06:41:39;25.45;;;11.65;;
42244;SDS011;27912;51.828;5.688;2022-11-20T06:44:05;25.75;;;12.23;;
42244;SDS011;27912;51.828;5.688;2022-11-20T06:46:30;27.45;;;11.57;;
42244;SDS011;27912;51.828;5.688;2022-11-20T06:48:57;30.10;;;12.82;;
42244;SDS011;27912;51.828;5.688;2022-11-20T06:51:23;30.15;;;11.93;;
42244;SDS011;27912;51.828;5.688;2022-11-20T06:53:48;31.63;;;13.30;;
42244;SDS011;27912;51.828;5.688;2022-11-20T06:56:14;25.38;;;12.35;;
42244;SDS011;27912;51.828;5.688;2022-11-20T06:58:40;27.20;;;12.13;;
42244;SDS011;27912;51.828;5.688;2022-11-20T07:01:06;27.48;;;12.00;;
42244;SDS011;27912;51.828;5.688;2022-11-20T07:03:34;25.35;;;12.38;;
42244;SDS011;27912;51.828;5.688;2022-11-20T07:06:01;25.98;;;11.43;;
42244;SDS011;27912;51.828;5.688;2022-11-20T07:08:27;27.42;;;13.57;;
42244;SDS011;27912;51.828;5.688;2022-11-20T07:10:56;29.27;;;12.32;;
42244;SDS011;27912;51.828;5.688;2022-11-20T07:13:26;27.55;;;12.02;;
42244;SDS011;27912;51.828;5.688;2022-11-20T07:15:53;29.52;;;13.65;;
42244;SDS011;27912;51.828;5.688;2022-11-20T07:18:18;29.98;;;13.30;;
42244;SDS011;27912;51.828;5.688;2022-11-20T07:20:44;28.05;;;11.65;;
42244;SDS011;27912;51.828;5.688;2022-11-20T07:23:09;28.67;;;13.20;;
42244;SDS011;27912;51.828;5.688;2022-11-20T07:25:35;25.08;;;12.52;;
42244;SDS011;27912;51.828;5.688;2022-11-20T07:28:01;29.65;;;13.63;;
42244;SDS011;27912;51.828;5.688;2022-11-20T07:30:26;32.42;;;14.15;;
42244;SDS011;27912;51.828;5.688;2022-11-20T07:32:53;31.23;;;12.73;;
42244;SDS011;27912;51.828;5.688;2022-11-20T07:35:20;26.67;;;12.95;;
42244;SDS011;27912;51.828;5.688;2022-11-20T07:37:47;29.88;;;12.80;;
42244;SDS011;27912;51.828;5.688;2022-11-20T07:40:13;29.90;;;13.52;;
42244;SDS011;27912;51.828;5.688;2022-11-20T07:42:46;31.30;;;14.07;;
42244;SDS011;27912;51.828;5.688;2022-11-20T07:45:16;30.67;;;13.55;;
42244;SDS011;27912;51.828;5.688;2022-11-20T07:47:42;27.35;;;11.85;;
42244;SDS011;27912;51.828;5.688;2022-11-20T07:50:08;28.48;;;13.63;;
42244;SDS011;27912;51.828;5.688;2022-11-20T07:52:34;30.05;;;12.82;;
42244;SDS011;27912;51.828;5.688;2022-11-20T07:54:59;29.70;;;15.00;;
42244;SDS011;27912;51.828;5.688;2022-11-20T07:57:25;32.40;;;14.90;;
42244;SDS011;27912;51.828;5.688;2022-11-20T07:59:50;31.70;;;14.27;;
42244;SDS011;27912;51.828;5.688;2022-11-20T08:02:16;29.83;;;14.30;;
42244;SDS011;27912;51.828;5.688;2022-11-20T08:04:42;27.55;;;12.82;;
42244;SDS011;27912;51.828;5.688;2022-11-20T08:07:07;29.90;;;14.00;;
42244;SDS011;27912;51.828;5.688;2022-11-20T08:09:33;30.45;;;15.57;;
42244;SDS011;27912;51.828;5.688;2022-11-20T08:11:58;32.90;;;15.35;;
42244;SDS011;27912;51.828;5.688;2022-11-20T08:14:42;33.65;;;15.02;;
42244;SDS011;27912;51.828;5.688;2022-11-20T08:17:08;34.15;;;16.10;;
42244;SDS011;27912;51.828;5.688;2022-11-20T08:19:33;31.95;;;14.95;;
42244;SDS011;27912;51.828;5.688;2022-11-20T08:21:59;36.15;;;16.23;;
42244;SDS011;27912;51.828;5.688;2022-11-20T08:24:24;31.23;;;16.00;;
42244;SDS011;27912;51.828;5.688;2022-11-20T08:26:51;38.60;;;16.85;;
42244;SDS011;27912;51.828;5.688;2022-11-20T08:29:17;33.40;;;16.80;;
42244;SDS011;27912;51.828;5.688;2022-11-20T08:31:43;35.45;;;17.15;;
42244;SDS011;27912;51.828;5.688;2022-11-20T08:34:09;40.55;;;19.40;;
42244;SDS011;27912;51.828;5.688;2022-11-20T08:36:35;40.88;;;18.88;;
42244;SDS011;27912;51.828;5.688;2022-11-20T08:39:00;35.83;;;17.60;;
42244;SDS011;27912;51.828;5.688;2022-11-20T08:41:26;40.38;;;19.13;;
42244;SDS011;27912;51.828;5.688;2022-11-20T08:46:18;39.42;;;18.50;;
42244;SDS011;27912;51.828;5.688;2022-11-20T08:48:44;35.72;;;18.85;;
42244;SDS011;27912;51.828;5.688;2022-11-20T08:51:10;38.10;;;20.13;;
42244;SDS011;27912;51.828;5.688;2022-11-20T08:53:37;36.42;;;18.58;;
42244;SDS011;27912;51.828;5.688;2022-11-20T08:56:03;40.42;;;20.17;;
42244;SDS011;27912;51.828;5.688;2022-11-20T08:58:29;37.75;;;19.10;;
42244;SDS011;27912;51.828;5.688;2022-11-20T09:00:55;36.70;;;19.33;;
42244;SDS011;27912;51.828;5.688;2022-11-20T09:03:21;36.83;;;19.27;;
42244;SDS011;27912;51.828;5.688;2022-11-20T09:05:47;36.80;;;19.83;;
42244;SDS011;27912;51.828;5.688;2022-11-20T09:08:12;46.38;;;20.77;;
42244;SDS011;27912;51.828;5.688;2022-11-20T09:10:38;40.50;;;20.95;;
42244;SDS011;27912;51.828;5.688;2022-11-20T09:13:06;40.53;;;19.70;;
42244;SDS011;27912;51.828;5.688;2022-11-20T09:15:32;43.67;;;21.35;;
42244;SDS011;27912;51.828;5.688;2022-11-20T09:17:59;40.05;;;20.83;;
42244;SDS011;27912;51.828;5.688;2022-11-20T09:20:27;38.85;;;21.90;;
42244;SDS011;27912;51.828;5.688;2022-11-20T09:22:54;40.72;;;20.95;;
42244;SDS011;27912;51.828;5.688;2022-11-20T09:25:20;44.13;;;21.77;;
42244;SDS011;27912;51.828;5.688;2022-11-20T09:27:46;39.28;;;20.48;;
42244;SDS011;27912;51.828;5.688;2022-11-20T09:30:13;42.70;;;20.92;;
42244;SDS011;27912;51.828;5.688;2022-11-20T09:32:39;39.13;;;19.83;;
42244;SDS011;27912;51.828;5.688;2022-11-20T09:35:05;40.10;;;21.65;;
42244;SDS011;27912;51.828;5.688;2022-11-20T09:37:31;42.30;;;21.45;;
42244;SDS011;27912;51.828;5.688;2022-11-20T09:39:57;39.45;;;20.35;;
42244;SDS011;27912;51.828;5.688;2022-11-20T09:42:26;39.35;;;21.63;;
42244;SDS011;27912;51.828;5.688;2022-11-20T09:44:59;40.95;;;21.15;;
42244;SDS011;27912;51.828;5.688;2022-11-20T09:50:40;43.67;;;22.50;;
42244;SDS011;27912;51.828;5.688;2022-11-20T09:56:14;38.83;;;20.63;;
42244;SDS011;27912;51.828;5.688;2022-11-20T09:58:50;42.70;;;21.95;;
42244;SDS011;27912;51.828;5.688;2022-11-20T10:01:19;42.53;;;22.20;;
42244;SDS011;27912;51.828;5.688;2022-11-20T10:03:51;42.38;;;22.40;;
42244;SDS011;27912;51.828;5.688;2022-11-20T10:06:28;42.85;;;22.92;;
42244;SDS011;27912;51.828;5.688;2022-11-20T10:09:31;43.22;;;21.10;;
42244;SDS011;27912;51.828;5.688;2022-11-20T10:12:15;43.33;;;22.83;;
42244;SDS011;27912;51.828;5.688;2022-11-20T10:17:52;44.90;;;22.85;;
42244;SDS011;27912;51.828;5.688;2022-11-20T10:31:52;45.67;;;23.13;;
42244;SDS011;27912;51.828;5.688;2022-11-20T10:37:29;41.95;;;21.80;;
42244;SDS011;27912;51.828;5.688;2022-11-20T10:42:31;47.33;;;23.55;;
42244;SDS011;27912;51.828;5.688;2022-11-20T10:47:50;45.70;;;23.60;;
42244;SDS011;27912;51.828;5.688;2022-11-20T10:50:19;43.60;;;22.83;;
42244;SDS011;27912;51.828;5.688;2022-11-20T10:55:40;44.13;;;22.63;;
42244;SDS011;27912;51.828;5.688;2022-11-20T10:58:22;45.05;;;23.27;;
42244;SDS011;27912;51.828;5.688;2022-11-20T11:01:16;40.55;;;23.58;;
42244;SDS011;27912;51.828;5.688;2022-11-20T11:03:43;46.65;;;23.55;;
42244;SDS011;27912;51.828;5.688;2022-11-20T11:09:01;43.85;;;24.17;;
42244;SDS011;27912;51.828;5.688;2022-11-20T11:11:32;41.55;;;21.75;;
42244;SDS011;27912;51.828;5.688;2022-11-20T11:14:11;41.65;;;22.20;;
42244;SDS011;27912;51.828;5.688;2022-11-20T11:16:54;48.38;;;24.30;;
42244;SDS011;27912;51.828;5.688;2022-11-20T11:19:25;40.63;;;22.75;;
42244;SDS011;27912;51.828;5.688;2022-11-20T11:21:54;43.85;;;23.48;;
42244;SDS011;27912;51.828;5.688;2022-11-20T11:24:25;40.95;;;23.08;;
42244;SDS011;27912;51.828;5.688;2022-11-20T11:26:57;46.25;;;24.75;;
42244;SDS011;27912;51.828;5.688;2022-11-20T11:29:25;43.47;;;24.73;;
42244;SDS011;27912;51.828;5.688;2022-11-20T11:32:05;44.45;;;23.55;;
42244;SDS011;27912;51.828;5.688;2022-11-20T11:34:32;42.22;;;23.50;;
42244;SDS011;27912;51.828;5.688;2022-11-20T11:36:58;46.17;;;24.13;;
42244;SDS011;27912;51.828;5.688;2022-11-20T11:39:26;43.50;;;23.85;;
42244;SDS011;27912;51.828;5.688;2022-11-20T11:41:53;44.60;;;23.70;;
42244;SDS011;27912;51.828;5.688;2022-11-20T11:44:20;45.35;;;24.17;;
42244;SDS011;27912;51.828;5.688;2022-11-20T11:47:19;45.35;;;23.58;;
42244;SDS011;27912;51.828;5.688;2022-11-20T11:50:01;45.25;;;24.23;;
42244;SDS011;27912;51.828;5.688;2022-11-20T11:52:35;43.92;;;23.98;;
42244;SDS011;27912;51.828;5.688;2022-11-20T11:55:28;46.58;;;22.73;;
42244;SDS011;27912;51.828;5.688;2022-11-20T11:58:04;43.67;;;23.67;;
42244;SDS011;27912;51.828;5.688;2022-11-20T12:00:57;40.85;;;23.45;;
42244;SDS011;27912;51.828;5.688;2022-11-20T12:03:29;41.47;;;23.08;;
42244;SDS011;27912;51.828;5.688;2022-11-20T12:06:03;47.80;;;23.73;;
42244;SDS011;27912;51.828;5.688;2022-11-20T12:08:41;46.83;;;24.60;;
42244;SDS011;27912;51.828;5.688;2022-11-20T12:13:50;54.03;;;27.08;;
42244;SDS011;27912;51.828;5.688;2022-11-20T12:16:29;52.45;;;26.90;;
42244;SDS011;27912;51.828;5.688;2022-11-20T12:18:58;58.25;;;28.75;;
42244;SDS011;27912;51.828;5.688;2022-11-20T12:21:31;59.03;;;28.95;;
42244;SDS011;27912;51.828;5.688;2022-11-20T12:37:30;54.20;;;26.40;;
42244;SDS011;27912;51.828;5.688;2022-11-20T12:48:41;62.45;;;30.20;;
42244;SDS011;27912;51.828;5.688;2022-11-20T13:02:09;63.30;;;27.25;;
42244;SDS011;27912;51.828;5.688;2022-11-20T13:07:38;60.70;;;28.02;;
42244;SDS011;27912;51.828;5.688;2022-11-20T13:10:06;61.70;;;27.88;;
42244;SDS011;27912;51.828;5.688;2022-11-20T13:13:17;51.95;;;26.08;;
42244;SDS011;27912;51.828;5.688;2022-11-20T13:16:01;55.65;;;28.10;;
42244;SDS011;27912;51.828;5.688;2022-11-20T13:18:34;52.70;;;25.08;;
42244;SDS011;27912;51.828;5.688;2022-11-20T13:21:13;51.03;;;24.67;;
42244;SDS011;27912;51.828;5.688;2022-11-20T13:24:07;64.95;;;27.92;;
42244;SDS011;27912;51.828;5.688;2022-11-20T13:27:01;52.40;;;26.00;;
42244;SDS011;27912;51.828;5.688;2022-11-20T13:29:30;56.67;;;27.27;;
42244;SDS011;27912;51.828;5.688;2022-11-20T13:34:38;56.72;;;27.20;;
42244;SDS011;27912;51.828;5.688;2022-11-20T13:37:04;54.95;;;27.90;;
42244;SDS011;27912;51.828;5.688;2022-11-20T13:39:31;53.55;;;27.40;;
42244;SDS011;27912;51.828;5.688;2022-11-20T13:42:00;46.42;;;25.35;;
42244;SDS011;27912;51.828;5.688;2022-11-20T13:44:36;53.70;;;25.70;;
42244;SDS011;27912;51.828;5.688;2022-11-20T13:47:04;53.15;;;25.63;;
42244;SDS011;27912;51.828;5.688;2022-11-20T13:49:52;47.92;;;24.17;;
42244;SDS011;27912;51.828;5.688;2022-11-20T13:58:19;51.35;;;24.35;;
42244;SDS011;27912;51.828;5.688;2022-11-20T14:01:14;52.60;;;25.50;;
42244;SDS011;27912;51.828;5.688;2022-11-20T14:03:51;55.30;;;25.63;;
42244;SDS011;27912;51.828;5.688;2022-11-20T14:06:26;50.75;;;26.17;;
42244;SDS011;27912;51.828;5.688;2022-11-20T14:08:57;43.92;;;21.60;;
42244;SDS011;27912;51.828;5.688;2022-11-20T14:11:27;52.85;;;25.23;;
42244;SDS011;27912;51.828;5.688;2022-11-20T14:13:56;59.08;;;26.63;;
42244;SDS011;27912;51.828;5.688;2022-11-20T14:16:30;54.50;;;26.38;;
42244;SDS011;27912;51.828;5.688;2022-11-20T14:19:08;61.53;;;27.15;;
42244;SDS011;27912;51.828;5.688;2022-11-20T14:21:52;57.05;;;23.65;;
42244;SDS011;27912;51.828;5.688;2022-11-20T14:24:20;60.15;;;27.05;;
42244;SDS011;27912;51.828;5.688;2022-11-20T14:26:47;63.88;;;28.05;;
42244;SDS011;27912;51.828;5.688;2022-11-20T14:29:14;62.00;;;28.05;;
42244;SDS011;27912;51.828;5.688;2022-11-20T14:31:42;63.00;;;26.85;;
42244;SDS011;27912;51.828;5.688;2022-11-20T14:34:26;61.10;;;28.27;;
42244;SDS011;27912;51.828;5.688;2022-11-20T14:37:00;66.75;;;29.35;;
42244;SDS011;27912;51.828;5.688;2022-11-20T14:39:31;70.88;;;27.77;;
42244;SDS011;27912;51.828;5.688;2022-11-20T14:42:02;66.57;;;29.65;;
42244;SDS011;27912;51.828;5.688;2022-11-20T14:44:39;68.70;;;28.67;;
42244;SDS011;27912;51.828;5.688;2022-11-20T14:47:06;73.63;;;30.05;;
42244;SDS011;27912;51.828;5.688;2022-11-20T14:49:35;76.22;;;30.65;;
42244;SDS011;27912;51.828;5.688;2022-11-20T14:52:09;65.55;;;26.48;;
42244;SDS011;27912;51.828;5.688;2022-11-20T14:54:46;73.00;;;29.40;;
42244;SDS011;27912;51.828;5.688;2022-11-20T14:57:24;72.82;;;28.52;;
42244;SDS011;27912;51.828;5.688;2022-11-20T15:02:33;73.07;;;29.83;;
42244;SDS011;27912;51.828;5.688;2022-11-20T15:05:00;79.35;;;31.35;;
42244;SDS011;27912;51.828;5.688;2022-11-20T15:07:33;77.70;;;32.17;;
42244;SDS011;27912;51.828;5.688;2022-11-20T15:12:32;76.40;;;30.20;;
42244;SDS011;27912;51.828;5.688;2022-11-20T15:15:01;84.88;;;32.72;;
42244;SDS011;27912;51.828;5.688;2022-11-20T15:17:27;70.35;;;29.30;;
42244;SDS011;27912;51.828;5.688;2022-11-20T15:19:54;74.40;;;28.95;;
42244;SDS011;27912;51.828;5.688;2022-11-20T15:22:20;75.18;;;30.02;;
42244;SDS011;27912;51.828;5.688;2022-11-20T15:24:46;77.75;;;30.45;;
42244;SDS011;27912;51.828;5.688;2022-11-20T15:27:12;75.07;;;29.13;;
42244;SDS011;27912;51.828;5.688;2022-11-20T15:29:37;80.32;;;31.88;;
42244;SDS011;27912;51.828;5.688;2022-11-20T15:32:03;90.10;;;32.35;;
42244;SDS011;27912;51.828;5.688;2022-11-20T15:34:29;78.10;;;30.88;;
42244;SDS011;27912;51.828;5.688;2022-11-20T15:36:55;86.13;;;32.13;;
42244;SDS011;27912;51.828;5.688;2022-11-20T15:39:20;77.80;;;29.60;;
42244;SDS011;27912;51.828;5.688;2022-11-20T15:41:46;66.05;;;25.48;;
42244;SDS011;27912;51.828;5.688;2022-11-20T15:44:12;90.25;;;31.65;;
42244;SDS011;27912;51.828;5.688;2022-11-20T15:46:41;92.43;;;30.90;;
42244;SDS011;27912;51.828;5.688;2022-11-20T15:49:10;85.15;;;30.65;;
42244;SDS011;27912;51.828;5.688;2022-11-20T15:51:43;89.43;;;31.25;;
42244;SDS011;27912;51.828;5.688;2022-11-20T15:54:15;83.40;;;30.08;;
42244;SDS011;27912;51.828;5.688;2022-11-20T15:56:45;83.13;;;29.55;;
42244;SDS011;27912;51.828;5.688;2022-11-20T15:59:11;79.97;;;29.35;;
42244;SDS011;27912;51.828;5.688;2022-11-20T16:01:40;72.50;;;28.58;;
42244;SDS011;27912;51.828;5.688;2022-11-20T16:04:10;72.05;;;28.13;;
42244;SDS011;27912;51.828;5.688;2022-11-20T16:06:37;85.70;;;30.83;;
42244;SDS011;27912;51.828;5.688;2022-11-20T16:09:03;66.97;;;28.83;;
42244;SDS011;27912;51.828;5.688;2022-11-20T16:11:29;73.28;;;27.83;;
42244;SDS011;27912;51.828;5.688;2022-11-20T16:13:55;72.60;;;27.38;;
42244;SDS011;27912;51.828;5.688;2022-11-20T16:16:39;68.28;;;26.77;;
42244;SDS011;27912;51.828;5.688;2022-11-20T16:19:10;70.88;;;27.52;;
42244;SDS011;27912;51.828;5.688;2022-11-20T16:21:37;71.88;;;27.98;;